Lincoln, Missouri
Current Conditions -  °F | °C
As of 9:15 AM on Friday 31 Oct 2014 (Local Time) from KGLY Reporting Station
Clear Clear  
Wind Chill: 30°   Ceiling: Unl
Heat Index: 39°   Visibility: 9mi
Dew Point: 28°   Wind: 17mph
Humidity: 65%   Direction: 360°N
Pressure: 30.42"   Gusts: 24mph
Location:  38.39°N, 93.33°W
Report Text: KGLY 311415Z AUTO 36015G21KT 9SM CLR 04/M02 A3042 RMK AO2
Loading
Personal Weather Stations






























Interactive Weather Map
Tropical Storm Tracking
New forecast layout! Learn more

10-Day Weather Forecast

Advertisements
Track Severe Weather on mobile